Terminal Aerodrome Forecast
Issued by NWS

Home | Current Version | Previous Version | Text Only | Print | Product List | Glossary On
Versions: 1 2 3 4 5 6 7 8 9 10 11 12 13 14 15 16 17 18 19 20 21 22 23 24 25 26 27 28 29 30
000
FTUS41 KALY 031315 AAA
TAFPSF
TAF AMD
KPSF 031315Z 0313/0412 00000KT 3SM BR FEW007 BKN250
      TEMPO 0313/0314 6SM BR
     FM031400 32004KT P6SM SCT040 BKN080
     FM032100 33005KT P6SM VCSH BKN060
     FM040400 03004KT 6SM BR FEW030 SCT070
     FM040900 07006KT 5SM BR BKN015 OVC025=

USA.gov is the U.S. government's official web portal to all federal, state and local government web resources and services.